Time;durP1;ratioP1;P1;durP2;ratioP2;P2;SDS_P1;SDS_P2;PMS_P1;PMS_P2;Temp;Humidity;BMP_temperature;BMP_pressure;BME280_temperature;BME280_humidity;BME280_pressure;Samples;Min_cycle;Max_cycle;Signal;HPM_P1;HPM_P2
2022/06/25 00:02:01;;;;;;;2.40;1.00;;;17.80;99.90;;;;;;5006354;28;20137;-80
2022/06/25 00:07:13;;;;;;;3.50;1.00;;;17.70;99.90;;;;;;5005491;28;20137;-79
2022/06/25 00:09:40;;;;;;;2.45;1.00;;;17.60;99.90;;;;;;5006930;28;20105;-79
2022/06/25 00:14:52;;;;;;;1.73;0.90;;;17.70;99.90;;;;;;5007067;28;20050;-79
2022/06/25 00:17:20;;;;;;;2.45;1.08;;;17.70;99.90;;;;;;5005363;28;20046;-79
2022/06/25 00:19:47;;;;;;;1.83;0.82;;;17.60;99.90;;;;;;5007911;28;20129;-80
2022/06/25 00:22:14;;;;;;;3.20;1.10;;;17.60;99.90;;;;;;5003231;28;20054;-79
2022/06/25 00:24:41;;;;;;;4.13;0.60;;;17.60;99.90;;;;;;5007820;28;20049;-79
2022/06/25 00:27:07;;;;;;;2.30;0.50;;;17.50;99.90;;;;;;5004067;28;20046;-79
2022/06/25 00:29:34;;;;;;;0.70;0.70;;;17.60;99.90;;;;;;5006913;28;20048;-79
2022/06/25 00:32:01;;;;;;;0.82;0.52;;;17.60;99.90;;;;;;5004456;28;20054;-79
2022/06/25 00:34:28;;;;;;;0.70;0.65;;;17.60;99.90;;;;;;5005998;28;20048;-80
2022/06/25 00:36:54;;;;;;;2.15;0.82;;;17.50;99.90;;;;;;5007128;28;20054;-80
2022/06/25 00:39:21;;;;;;;2.88;0.70;;;17.50;99.90;;;;;;5010449;28;20054;-80
2022/06/25 00:41:48;;;;;;;1.02;0.60;;;17.60;99.90;;;;;;5009640;28;20052;-80
2022/06/25 00:44:16;;;;;;;2.00;0.75;;;17.50;99.90;;;;;;5006773;28;20109;-79
2022/06/25 00:46:46;;;;;;;3.20;0.70;;;17.50;99.90;;;;;;5007002;28;20053;-81
2022/06/25 00:49:13;;;;;;;2.72;0.75;;;17.50;99.90;;;;;;5010345;28;20046;-81
2022/06/25 00:51:41;;;;;;;0.63;0.60;;;17.50;99.90;;;;;;5012401;28;20048;-79
2022/06/25 00:54:09;;;;;;;1.92;0.82;;;17.40;99.90;;;;;;5013281;28;20050;-79
2022/06/25 00:56:39;;;;;;;0.95;0.70;;;17.50;99.90;;;;;;5012834;28;20466;-79
2022/06/25 00:59:06;;;;;;;3.03;0.90;;;17.50;99.90;;;;;;5008828;28;20056;-80
2022/06/25 01:01:34;;;;;;;1.58;0.80;;;17.50;99.90;;;;;;5011869;28;20114;-80
2022/06/25 01:04:02;;;;;;;1.40;0.70;;;17.60;99.90;;;;;;5012513;28;20104;-81
2022/06/25 01:06:29;;;;;;;2.00;0.90;;;17.50;99.90;;;;;;5013723;28;20088;-80
2022/06/25 01:08:57;;;;;;;7.30;1.48;;;17.50;99.90;;;;;;5010044;28;20068;-80
2022/06/25 01:11:24;;;;;;;3.35;0.80;;;17.60;99.90;;;;;;5011091;28;20125;-80
2022/06/25 01:13:52;;;;;;;1.75;0.70;;;17.60;99.90;;;;;;5012199;28;20129;-80
2022/06/25 01:16:22;;;;;;;4.10;0.82;;;17.50;99.90;;;;;;5011348;28;20058;-79
2022/06/25 01:18:49;;;;;;;4.50;0.80;;;17.50;99.90;;;;;;5009209;28;20051;-79
2022/06/25 01:21:16;;;;;;;2.25;0.70;;;17.50;99.90;;;;;;5012913;28;20076;-82
2022/06/25 01:23:43;;;;;;;1.00;0.90;;;17.50;99.90;;;;;;5010225;28;20405;-80
2022/06/25 01:26:10;;;;;;;3.30;0.82;;;17.50;99.90;;;;;;5014098;28;20074;-80
2022/06/25 01:28:36;;;;;;;1.00;0.90;;;17.50;99.90;;;;;;5011754;28;20056;-81
2022/06/25 01:31:03;;;;;;;3.75;1.02;;;17.50;99.90;;;;;;5009946;28;20511;-79
2022/06/25 01:33:30;;;;;;;3.78;1.00;;;17.50;99.90;;;;;;5011538;28;20068;-80
2022/06/25 01:35:57;;;;;;;1.08;0.80;;;17.50;99.90;;;;;;5015878;28;20492;-81
2022/06/25 01:38:23;;;;;;;1.67;0.70;;;17.40;99.90;;;;;;5031843;28;20060;-80
2022/06/25 01:40:51;;;;;;;3.90;0.75;;;17.40;99.90;;;;;;5017870;28;20085;-80
2022/06/25 01:43:17;;;;;;;0.68;0.65;;;17.40;99.90;;;;;;5015857;28;20050;-80
2022/06/25 01:45:44;;;;;;;1.25;0.80;;;17.40;99.90;;;;;;5018046;28;20050;-81
2022/06/25 01:48:11;;;;;;;1.20;0.82;;;17.40;99.90;;;;;;5014448;28;20053;-81
2022/06/25 01:50:38;;;;;;;0.70;0.60;;;17.40;99.90;;;;;;5004969;28;20046;-83
2022/06/25 01:53:05;;;;;;;3.30;0.85;;;17.30;99.90;;;;;;5019859;28;20130;-80
2022/06/25 01:55:32;;;;;;;1.35;0.60;;;17.30;99.90;;;;;;5017847;28;20113;-80
2022/06/25 01:58:00;;;;;;;2.53;0.68;;;17.30;99.90;;;;;;5016555;28;20054;-80
2022/06/25 02:00:29;;;;;;;3.90;0.70;;;17.30;99.90;;;;;;5014715;28;20054;-82
2022/06/25 02:02:56;;;;;;;2.72;0.75;;;17.30;99.90;;;;;;5016716;28;20046;-80
2022/06/25 02:08:13;;;;;;;0.80;0.70;;;17.20;99.90;;;;;;5016001;28;20133;-80
2022/06/25 02:10:40;;;;;;;1.27;1.00;;;17.20;99.90;;;;;;5014673;28;20134;-79
2022/06/25 02:13:07;;;;;;;4.50;0.98;;;17.20;99.90;;;;;;5023728;28;20076;-81
2022/06/25 02:15:34;;;;;;;1.10;0.77;;;17.20;99.90;;;;;;5026489;28;20065;-84
2022/06/25 02:18:01;;;;;;;1.73;0.63;;;17.10;99.90;;;;;;5018690;28;20078;-84
2022/06/25 02:20:28;;;;;;;3.47;0.60;;;17.10;99.90;;;;;;5018484;28;20038;-83
2022/06/25 02:22:54;;;;;;;2.90;0.80;;;17.10;99.90;;;;;;5018889;28;20082;-83
2022/06/25 02:25:21;;;;;;;7.28;0.70;;;17.00;99.90;;;;;;5018382;28;20078;-84
2022/06/25 02:27:48;;;;;;;1.77;0.60;;;17.00;99.90;;;;;;5026410;28;20073;-84
2022/06/25 02:30:14;;;;;;;6.28;0.93;;;17.10;99.90;;;;;;5027874;28;20098;-82
2022/06/25 02:32:41;;;;;;;2.38;0.68;;;17.10;99.90;;;;;;5024852;28;20056;-78
2022/06/25 02:35:08;;;;;;;4.65;0.82;;;17.10;99.90;;;;;;5009595;28;20444;-80
2022/06/25 02:37:35;;;;;;;3.00;0.90;;;17.10;99.90;;;;;;5010614;28;20050;-80
2022/06/25 02:40:03;;;;;;;1.67;1.10;;;17.10;99.90;;;;;;5007916;28;20093;-82
2022/06/25 02:42:37;;;;;;;2.58;1.00;;;17.00;99.90;;;;;;5010012;28;20046;-80
2022/06/25 02:45:06;;;;;;;2.33;0.80;;;17.10;99.90;;;;;;5007791;28;20393;-79
2022/06/25 02:47:33;;;;;;;2.63;0.82;;;17.10;99.90;;;;;;5008867;28;20056;-78
2022/06/25 02:50:01;;;;;;;2.72;0.77;;;17.00;99.90;;;;;;5008692;28;20089;-79
2022/06/25 02:52:27;;;;;;;1.10;0.70;;;17.00;99.90;;;;;;5007473;28;20042;-80
2022/06/25 02:54:54;;;;;;;1.70;0.90;;;17.00;99.90;;;;;;5010423;28;20045;-79
2022/06/25 03:00:07;;;;;;;3.92;0.90;;;17.00;99.90;;;;;;5008475;28;20073;-80
2022/06/25 03:02:34;;;;;;;1.88;0.93;;;17.10;99.90;;;;;;5008326;28;20077;-80
2022/06/25 03:05:02;;;;;;;1.20;0.70;;;17.10;99.90;;;;;;5007960;28;20137;-78
2022/06/25 03:07:29;;;;;;;0.65;0.60;;;17.20;99.90;;;;;;5007461;28;20050;-79
2022/06/25 03:09:57;;;;;;;2.85;0.68;;;17.20;99.90;;;;;;5009533;28;20046;-79
2022/06/25 03:12:23;;;;;;;1.80;0.70;;;17.20;99.90;;;;;;5007043;28;20050;-78
2022/06/25 03:14:50;;;;;;;1.48;0.70;;;17.20;99.90;;;;;;5009712;28;20054;-81
2022/06/25 03:17:17;;;;;;;1.30;0.80;;;17.30;99.90;;;;;;5009131;28;20046;-78
2022/06/25 03:19:43;;;;;;;1.02;0.70;;;17.40;99.90;;;;;;5007660;28;20054;-78
2022/06/25 03:22:10;;;;;;;3.35;0.70;;;17.50;99.90;;;;;;5009763;28;20057;-78
2022/06/25 03:24:37;;;;;;;1.15;0.70;;;17.50;99.90;;;;;;5008215;28;20054;-81
2022/06/25 03:27:04;;;;;;;2.20;0.95;;;17.50;99.90;;;;;;5008238;28;20046;-79
2022/06/25 03:29:30;;;;;;;1.30;0.80;;;17.50;99.90;;;;;;5009219;28;20046;-79
2022/06/25 03:31:57;;;;;;;3.22;0.60;;;17.50;99.90;;;;;;5006754;28;20110;-79
2022/06/25 03:34:24;;;;;;;1.20;0.60;;;17.50;99.90;;;;;;4997895;28;20074;-79
2022/06/25 03:36:50;;;;;;;1.58;0.63;;;17.60;99.90;;;;;;4999107;28;20046;-78
2022/06/25 03:39:17;;;;;;;2.53;0.65;;;17.60;99.90;;;;;;4997501;28;20056;-79
2022/06/25 03:41:44;;;;;;;3.25;0.60;;;17.60;99.90;;;;;;4998873;28;20046;-80
2022/06/25 03:44:11;;;;;;;0.50;0.50;;;17.70;99.90;;;;;;5006301;28;20053;-78
2022/06/25 03:46:39;;;;;;;1.25;0.55;;;17.70;99.90;;;;;;5008279;28;20053;-80
2022/06/25 03:49:06;;;;;;;2.60;0.70;;;17.80;99.90;;;;;;5009402;28;20046;-82
2022/06/25 03:51:33;;;;;;;1.33;0.70;;;17.80;99.90;;;;;;5005576;28;20046;-78
2022/06/25 03:54:00;;;;;;;2.00;0.80;;;17.90;99.90;;;;;;5013279;28;20048;-79
2022/06/25 03:56:27;;;;;;;2.17;0.60;;;17.90;99.90;;;;;;5009496;28;20109;-79
2022/06/25 03:58:53;;;;;;;1.55;0.90;;;18.00;99.90;;;;;;5009486;28;20054;-79
2022/06/25 04:01:23;;;;;;;2.80;0.70;;;18.00;99.90;;;;;;5007575;28;20141;-78
2022/06/25 04:03:50;;;;;;;0.67;0.50;;;18.00;99.90;;;;;;5008730;28;20133;-78
2022/06/25 04:06:17;;;;;;;1.58;0.60;;;18.00;99.90;;;;;;5009370;28;20141;-81
2022/06/25 04:08:44;;;;;;;3.50;0.60;;;18.10;99.90;;;;;;5013151;28;20050;-79
2022/06/25 04:11:11;;;;;;;3.20;1.15;;;18.20;99.90;;;;;;5018560;28;20106;-78
2022/06/25 04:13:38;;;;;;;0.60;0.50;;;18.20;99.90;;;;;;5015981;28;20054;-78
2022/06/25 04:16:05;;;;;;;0.60;0.50;;;18.20;99.90;;;;;;5017309;28;20046;-78
2022/06/25 04:18:32;;;;;;;4.57;0.90;;;18.30;99.90;;;;;;5015199;28;20141;-81
2022/06/25 04:20:59;;;;;;;0.98;0.60;;;18.30;99.90;;;;;;5013167;28;20050;-79
2022/06/25 04:23:26;;;;;;;1.02;0.60;;;18.40;99.90;;;;;;5021347;28;20069;-79
2022/06/25 04:25:54;;;;;;;2.63;0.65;;;18.50;99.90;;;;;;5019251;28;20050;-79
2022/06/25 04:31:06;;;;;;;3.22;0.52;;;18.60;99.90;;;;;;5019957;28;20141;-78
2022/06/25 04:33:33;;;;;;;0.70;0.40;;;18.60;99.90;;;;;;5021157;28;20046;-80
2022/06/25 04:36:00;;;;;;;1.45;0.75;;;18.70;99.90;;;;;;5016929;28;20051;-80
2022/06/25 04:38:27;;;;;;;2.80;0.50;;;18.70;99.90;;;;;;5012943;28;20129;-81
2022/06/25 04:40:53;;;;;;;0.93;0.50;;;18.80;99.90;;;;;;5011796;28;20498;-80
2022/06/25 04:43:21;;;;;;;0.40;0.40;;;18.90;99.90;;;;;;5012516;28;20050;-80
2022/06/25 04:45:47;;;;;;;1.95;0.50;;;18.90;99.90;;;;;;5017344;28;20046;-80
2022/06/25 04:48:14;;;;;;;0.93;0.50;;;19.00;99.90;;;;;;5018246;28;20050;-78
2022/06/25 04:50:46;;;;;;;1.02;0.63;;;19.00;99.90;;;;;;5020901;28;20042;-81
2022/06/25 04:53:13;;;;;;;1.60;0.70;;;19.10;99.90;;;;;;5017723;28;20046;-78
2022/06/25 04:55:40;;;;;;;2.15;0.52;;;19.10;99.90;;;;;;5021531;28;20046;-81
2022/06/25 04:58:07;;;;;;;1.77;0.60;;;19.20;99.90;;;;;;5020415;28;20057;-78
2022/06/25 05:00:34;;;;;;;1.58;0.65;;;19.20;99.90;;;;;;5017687;28;20053;-79
2022/06/25 05:03:07;;;;;;;2.05;0.50;;;19.20;99.90;;;;;;5016952;28;20062;-81
2022/06/25 05:05:35;;;;;;;0.80;0.50;;;19.20;99.90;;;;;;5013464;28;20165;-81
2022/06/25 05:08:01;;;;;;;0.55;0.40;;;19.20;99.90;;;;;;5010334;28;20056;-80
2022/06/25 05:10:28;;;;;;;3.80;0.90;;;19.30;99.90;;;;;;5001283;28;20046;-82
2022/06/25 05:13:13;;;;;;;5.95;1.67;;;19.30;99.90;;;;;;5002026;28;20046;-80
2022/06/25 05:15:41;;;;;;;0.60;0.60;;;19.40;99.90;;;;;;5002250;28;20042;-80
2022/06/25 05:18:08;;;;;;;2.72;1.08;;;19.40;99.90;;;;;;5005730;28;20104;-79
2022/06/25 05:20:40;;;;;;;3.03;0.80;;;19.50;99.90;;;;;;5010194;28;20062;-82
2022/06/25 05:23:07;;;;;;;1.10;0.63;;;19.50;99.90;;;;;;5011846;28;20400;-80
2022/06/25 05:25:34;;;;;;;1.75;0.52;;;19.60;99.90;;;;;;5009363;28;20052;-80
2022/06/25 05:28:02;;;;;;;1.15;0.75;;;19.60;99.90;;;;;;5010465;28;20150;-82
2022/06/25 05:30:29;;;;;;;1.45;0.70;;;19.60;99.90;;;;;;5010621;28;20529;-81
2022/06/25 05:32:56;;;;;;;2.35;0.70;;;19.70;99.90;;;;;;5009104;28;20064;-80
2022/06/25 05:35:23;;;;;;;1.45;1.00;;;19.70;99.90;;;;;;5008760;28;20050;-79
2022/06/25 05:37:51;;;;;;;0.60;0.52;;;19.80;99.90;;;;;;5012881;28;20056;-80
2022/06/25 05:40:18;;;;;;;1.92;0.80;;;19.80;99.90;;;;;;5007523;28;20055;-80
2022/06/25 05:42:45;;;;;;;4.03;0.73;;;19.80;99.90;;;;;;5009153;28;20129;-81
2022/06/25 05:45:13;;;;;;;1.90;0.70;;;19.90;99.90;;;;;;5011422;28;20132;-79
2022/06/25 05:47:39;;;;;;;1.30;0.70;;;19.90;99.90;;;;;;5011384;28;20421;-80
2022/06/25 05:50:07;;;;;;;1.50;0.50;;;20.00;99.90;;;;;;5010653;28;20077;-79
2022/06/25 05:52:34;;;;;;;3.60;0.77;;;20.00;99.90;;;;;;5015286;28;20042;-80
2022/06/25 05:55:02;;;;;;;5.28;1.05;;;20.00;99.90;;;;;;5012283;28;20074;-80
2022/06/25 05:57:28;;;;;;;0.90;0.70;;;20.00;99.90;;;;;;5012379;28;20423;-80
2022/06/25 05:59:56;;;;;;;2.38;0.60;;;20.00;99.90;;;;;;5008199;28;20420;-80
2022/06/25 06:02:26;;;;;;;2.78;0.60;;;20.00;99.90;;;;;;5012334;28;20057;-81
2022/06/25 06:04:54;;;;;;;2.57;0.83;;;20.00;99.90;;;;;;5010863;28;20065;-79
2022/06/25 06:07:21;;;;;;;1.27;0.88;;;19.90;99.90;;;;;;5010390;28;20133;-79
2022/06/25 06:09:48;;;;;;;2.25;0.80;;;19.90;99.90;;;;;;5009726;28;20050;-80
2022/06/25 06:12:15;;;;;;;2.42;0.52;;;19.90;99.90;;;;;;5011216;28;20053;-80
2022/06/25 06:14:42;;;;;;;3.38;0.93;;;19.90;99.90;;;;;;5010565;28;20073;-82
2022/06/25 06:17:09;;;;;;;2.38;0.90;;;19.90;99.90;;;;;;5009194;28;20046;-80
2022/06/25 06:19:36;;;;;;;2.13;0.95;;;19.90;99.90;;;;;;5011488;28;20069;-81
2022/06/25 06:22:03;;;;;;;3.13;0.73;;;19.90;99.90;;;;;;4999864;28;20086;-79
2022/06/25 06:24:30;;;;;;;3.53;0.90;;;19.90;99.90;;;;;;5000976;28;20109;-79
2022/06/25 06:26:56;;;;;;;1.85;1.08;;;19.80;99.90;;;;;;5000245;28;20050;-80
2022/06/25 06:29:24;;;;;;;1.02;0.45;;;19.80;99.90;;;;;;5001015;28;20052;-80
2022/06/25 06:31:50;;;;;;;0.60;0.60;;;19.80;99.90;;;;;;5011342;28;20516;-82
2022/06/25 06:34:17;;;;;;;1.38;0.80;;;19.80;99.90;;;;;;5014167;28;20069;-81
2022/06/25 06:36:44;;;;;;;2.22;0.77;;;19.80;99.90;;;;;;5015479;28;20046;-82
2022/06/25 06:39:11;;;;;;;4.97;0.73;;;19.80;99.90;;;;;;5014040;28;20117;-80
2022/06/25 06:41:37;;;;;;;5.57;0.70;;;19.80;99.90;;;;;;5016307;28;20050;-81
2022/06/25 06:44:05;;;;;;;1.00;0.50;;;19.80;99.90;;;;;;5011828;28;20065;-80
2022/06/25 06:46:38;;;;;;;2.53;0.60;;;19.90;99.90;;;;;;5007756;28;20046;-80
2022/06/25 06:49:05;;;;;;;2.35;0.70;;;19.90;99.90;;;;;;5010420;28;20046;-79
2022/06/25 06:51:31;;;;;;;3.38;0.90;;;19.90;99.90;;;;;;5011043;28;20046;-79
2022/06/25 06:53:58;;;;;;;1.70;0.60;;;19.90;99.90;;;;;;5010324;28;20389;-80
2022/06/25 06:56:25;;;;;;;0.50;0.50;;;19.90;99.90;;;;;;5010289;28;20046;-78
2022/06/25 06:58:52;;;;;;;2.28;0.88;;;20.00;99.90;;;;;;5010602;28;20126;-78
2022/06/25 07:01:19;;;;;;;0.80;0.73;;;20.00;99.90;;;;;;5009439;28;20051;-81
2022/06/25 07:03:46;;;;;;;1.10;0.50;;;20.00;99.90;;;;;;5013071;28;20081;-80
2022/06/25 07:06:13;;;;;;;1.45;0.45;;;20.10;99.90;;;;;;5009531;28;20065;-80
2022/06/25 07:08:39;;;;;;;0.88;0.70;;;20.10;99.90;;;;;;5000893;28;20049;-80
2022/06/25 07:11:28;;;;;;;2.72;0.50;;;20.10;99.90;;;;;;5000993;28;20416;-79
2022/06/25 07:13:54;;;;;;;1.45;0.60;;;20.10;99.90;;;;;;4999870;28;20647;-81
2022/06/25 07:16:22;;;;;;;1.80;0.70;;;20.20;99.90;;;;;;5005990;28;20137;-80
2022/06/25 07:18:50;;;;;;;1.05;0.60;;;20.20;99.90;;;;;;5008990;28;20046;-82
2022/06/25 07:21:17;;;;;;;0.63;0.60;;;20.20;99.90;;;;;;5011744;28;20116;-79
2022/06/25 07:23:44;;;;;;;1.83;0.77;;;20.20;99.90;;;;;;5010731;28;20050;-81
2022/06/25 07:26:11;;;;;;;0.93;0.65;;;20.30;99.90;;;;;;5010358;28;20498;-80
2022/06/25 07:28:37;;;;;;;0.60;0.50;;;20.30;99.90;;;;;;5010344;28;20078;-78
2022/06/25 07:31:04;;;;;;;0.65;0.52;;;20.40;99.90;;;;;;5010084;28;20058;-82
2022/06/25 07:33:31;;;;;;;0.82;0.55;;;20.40;99.90;;;;;;5012379;28;20046;-80
2022/06/25 07:35:58;;;;;;;0.60;0.50;;;20.40;99.90;;;;;;5012136;28;20062;-81
2022/06/25 07:38:25;;;;;;;1.15;0.80;;;20.40;99.90;;;;;;5015620;28;20046;-81
2022/06/25 07:40:51;;;;;;;2.40;0.77;;;20.50;99.90;;;;;;5031449;28;20054;-80
2022/06/25 07:43:18;;;;;;;1.13;0.57;;;20.60;99.90;;;;;;5014828;28;20113;-81
2022/06/25 07:45:45;;;;;;;4.25;0.90;;;20.60;99.90;;;;;;5010713;28;20427;-80
2022/06/25 07:48:12;;;;;;;1.48;0.60;;;20.60;99.90;;;;;;5006948;28;20051;-82
2022/06/25 07:53:24;;;;;;;1.67;0.82;;;20.70;99.90;;;;;;5017679;28;20563;-80
2022/06/25 07:55:50;;;;;;;1.55;0.60;;;20.80;99.90;;;;;;5011557;28;20050;-80
2022/06/25 07:58:17;;;;;;;1.95;0.60;;;20.80;99.90;;;;;;5009622;28;20502;-80
2022/06/25 08:00:44;;;;;;;1.70;0.70;;;20.90;99.90;;;;;;5011407;28;20538;-80
2022/06/25 08:03:11;;;;;;;0.93;0.73;;;20.90;99.90;;;;;;5011919;28;20417;-79
2022/06/25 08:05:38;;;;;;;1.60;0.50;;;20.90;99.90;;;;;;5011537;28;20157;-80
2022/06/25 08:08:05;;;;;;;2.25;0.90;;;21.00;99.90;;;;;;5013162;28;20054;-80
2022/06/25 08:10:31;;;;;;;0.50;0.50;;;21.00;99.90;;;;;;5012381;28;20085;-80
2022/06/25 08:12:58;;;;;;;2.75;0.73;;;21.10;99.90;;;;;;5010087;28;20496;-80
2022/06/25 08:15:25;;;;;;;1.95;0.50;;;21.20;99.90;;;;;;5013709;28;20050;-79
2022/06/25 08:17:52;;;;;;;1.83;0.93;;;21.20;99.90;;;;;;5010685;28;20508;-80
2022/06/25 08:20:18;;;;;;;3.03;0.80;;;21.20;99.90;;;;;;5010595;28;20049;-80
2022/06/25 08:22:45;;;;;;;1.00;0.77;;;21.20;99.90;;;;;;5007632;28;20432;-80
2022/06/25 08:25:12;;;;;;;6.45;1.08;;;21.30;99.90;;;;;;5012158;28;20120;-79
2022/06/25 08:27:50;;;;;;;1.10;0.55;;;21.40;99.90;;;;;;5008573;28;20050;-79
2022/06/25 08:30:18;;;;;;;4.55;1.00;;;21.40;99.90;;;;;;5010126;28;20116;-80
2022/06/25 08:32:45;;;;;;;0.52;0.52;;;21.40;99.90;;;;;;5017849;28;20133;-83
2022/06/25 08:35:12;;;;;;;2.53;0.55;;;21.50;99.90;;;;;;5018540;28;20046;-83
2022/06/25 08:37:51;;;;;;;1.88;0.65;;;21.50;99.90;;;;;;5020334;28;20050;-83
2022/06/25 08:40:20;;;;;;;0.95;0.80;;;21.60;99.90;;;;;;5015933;28;20060;-79
2022/06/25 08:42:49;;;;;;;0.60;0.55;;;21.60;99.90;;;;;;5012915;28;20046;-78
2022/06/25 08:45:18;;;;;;;2.95;0.73;;;21.60;99.90;;;;;;5004297;28;20454;-79
2022/06/25 08:47:47;;;;;;;1.95;0.88;;;21.60;99.90;;;;;;5007499;28;20129;-78
2022/06/25 08:50:15;;;;;;;0.50;0.50;;;21.70;99.90;;;;;;5005671;28;20069;-78
2022/06/25 08:52:45;;;;;;;2.08;0.75;;;21.70;99.90;;;;;;5007743;28;20129;-78
2022/06/25 08:55:27;;;;;;;0.98;0.52;;;21.80;99.90;;;;;;5004976;28;20070;-79
2022/06/25 08:57:55;;;;;;;1.73;0.80;;;21.80;99.90;;;;;;5006588;28;20054;-80
2022/06/25 09:00:22;;;;;;;0.90;0.65;;;21.80;99.90;;;;;;5013973;28;20078;-79
2022/06/25 09:02:51;;;;;;;2.15;0.98;;;21.90;99.90;;;;;;5007550;28;20085;-79
2022/06/25 09:05:25;;;;;;;1.35;0.60;;;22.00;99.90;;;;;;5004737;28;20089;-78
2022/06/25 09:07:54;;;;;;;4.88;0.90;;;22.00;99.90;;;;;;5003437;28;20084;-77
2022/06/25 09:10:24;;;;;;;0.80;0.70;;;22.00;99.90;;;;;;5003651;28;20503;-78
2022/06/25 09:12:55;;;;;;;1.55;0.68;;;22.00;99.90;;;;;;5005273;28;20050;-78
2022/06/25 09:15:25;;;;;;;1.27;0.60;;;22.10;99.90;;;;;;5006444;28;20077;-78
2022/06/25 09:17:52;;;;;;;0.80;0.73;;;22.00;99.90;;;;;;5006415;28;20054;-78
2022/06/25 09:20:26;;;;;;;4.20;0.73;;;22.10;99.90;;;;;;5003665;28;20054;-79
2022/06/25 09:22:57;;;;;;;2.00;0.70;;;22.10;99.90;;;;;;5004705;28;20052;-78
2022/06/25 09:25:29;;;;;;;1.15;0.80;;;22.20;99.90;;;;;;5008168;28;20054;-80
2022/06/25 09:27:57;;;;;;;2.17;0.70;;;22.20;99.90;;;;;;5002506;28;20554;-79
2022/06/25 09:30:29;;;;;;;0.95;0.70;;;22.20;99.90;;;;;;5023185;28;20052;-79
2022/06/25 09:33:01;;;;;;;1.20;0.73;;;22.20;99.90;;;;;;5010051;28;20128;-79
2022/06/25 09:35:35;;;;;;;2.67;0.70;;;22.20;99.90;;;;;;5010906;28;20129;-79
2022/06/25 09:38:06;;;;;;;1.55;0.95;;;22.30;99.90;;;;;;5008637;28;20049;-79
2022/06/25 09:40:34;;;;;;;1.35;0.60;;;22.30;99.90;;;;;;5005087;28;20054;-80
2022/06/25 09:43:11;;;;;;;1.83;0.75;;;22.30;99.90;;;;;;5010737;28;20137;-80
2022/06/25 09:45:38;;;;;;;1.60;0.80;;;22.30;99.90;;;;;;5007215;28;20065;-79
2022/06/25 09:48:12;;;;;;;1.88;0.77;;;22.30;99.90;;;;;;5016708;28;20060;-77
2022/06/25 09:50:39;;;;;;;3.00;0.90;;;22.40;99.90;;;;;;5009143;28;20042;-78
2022/06/25 09:53:05;;;;;;;3.03;0.70;;;22.40;99.90;;;;;;5005612;28;20078;-81
2022/06/25 09:55:37;;;;;;;3.65;0.90;;;22.40;99.90;;;;;;5010208;28;20052;-79
2022/06/25 09:58:05;;;;;;;1.77;0.63;;;22.50;99.90;;;;;;5007142;28;20104;-79
2022/06/25 10:00:32;;;;;;;2.40;1.10;;;22.50;99.90;;;;;;5005505;28;20088;-78
2022/06/25 10:03:00;;;;;;;2.53;0.70;;;22.50;99.90;;;;;;5005449;28;20060;-78
2022/06/25 10:05:38;;;;;;;0.98;0.60;;;22.60;99.90;;;;;;5002016;28;20081;-78
2022/06/25 10:08:10;;;;;;;1.17;0.80;;;22.60;99.90;;;;;;5005548;28;20054;-77
2022/06/25 10:10:43;;;;;;;1.10;0.90;;;22.70;99.90;;;;;;5004788;28;20054;-79
2022/06/25 10:13:10;;;;;;;2.20;0.88;;;22.70;99.90;;;;;;5002874;28;20052;-77
2022/06/25 10:15:38;;;;;;;1.65;0.77;;;22.80;99.90;;;;;;5009715;28;20050;-79
2022/06/25 10:18:11;;;;;;;1.65;0.80;;;22.80;99.90;;;;;;5005380;28;20046;-80
2022/06/25 10:20:39;;;;;;;3.58;0.80;;;22.90;99.90;;;;;;5002786;28;20072;-78
2022/06/25 10:23:09;;;;;;;0.75;0.57;;;23.00;99.90;;;;;;5004519;28;20136;-78
2022/06/25 10:25:37;;;;;;;2.25;1.60;;;23.00;99.90;;;;;;5001864;28;20046;-77
2022/06/25 10:28:12;;;;;;;1.63;0.80;;;23.10;99.90;;;;;;5002059;28;20072;-79
2022/06/25 10:30:46;;;;;;;0.95;0.60;;;23.20;99.90;;;;;;5003419;28;20066;-77
2022/06/25 10:33:18;;;;;;;3.30;0.65;;;23.20;99.90;;;;;;5008482;28;20133;-78
2022/06/25 10:35:45;;;;;;;2.38;0.70;;;23.20;99.90;;;;;;5002045;28;20054;-77
2022/06/25 10:38:16;;;;;;;0.98;0.70;;;23.30;99.90;;;;;;5004916;28;20128;-77
2022/06/25 10:40:48;;;;;;;1.50;1.35;;;23.40;99.90;;;;;;5004287;28;20056;-78
2022/06/25 10:43:35;;;;;;;1.00;0.57;;;23.40;99.90;;;;;;5004892;28;20129;-83
2022/06/25 10:46:30;;;;;;;0.95;0.60;;;23.50;99.90;;;;;;5004168;28;20085;-78
2022/06/25 10:49:18;;;;;;;1.92;0.75;;;23.60;99.90;;;;;;5002251;28;20418;-77
2022/06/25 10:51:49;;;;;;;4.07;0.75;;;23.60;99.90;;;;;;5005501;28;20092;-79
2022/06/25 10:54:22;;;;;;;3.05;0.70;;;23.60;99.90;;;;;;5005689;28;20054;-79
2022/06/25 10:56:51;;;;;;;0.70;0.70;;;23.60;99.90;;;;;;5011312;28;20665;-79
2022/06/25 10:59:41;;;;;;;0.70;0.70;;;23.60;99.90;;;;;;5004057;28;20076;-79
2022/06/25 11:02:10;;;;;;;3.17;0.90;;;23.60;99.90;;;;;;5021147;28;20049;-78
2022/06/25 11:04:38;;;;;;;1.83;0.70;;;23.70;99.90;;;;;;4997802;28;20066;-79
2022/06/25 11:07:07;;;;;;;1.63;0.60;;;23.80;99.90;;;;;;5002925;28;20054;-78
2022/06/25 11:09:35;;;;;;;1.90;0.90;;;23.80;99.90;;;;;;5002598;28;20479;-79
2022/06/25 11:12:07;;;;;;;2.33;0.73;;;23.80;99.90;;;;;;5001495;28;20133;-79
2022/06/25 11:14:34;;;;;;;1.42;1.17;;;23.90;99.90;;;;;;5006591;28;20056;-79
2022/06/25 11:17:09;;;;;;;1.95;1.02;;;23.90;99.90;;;;;;5001633;28;20057;-79
2022/06/25 11:19:40;;;;;;;2.75;0.77;;;24.00;99.90;;;;;;5003061;28;20077;-78
2022/06/25 11:22:07;;;;;;;;;;;24.00;99.90;;;;;;5004017;28;20054;-79
2022/06/25 11:24:34;;;;;;;0.85;0.60;;;24.00;99.90;;;;;;5001966;28;19928;-77
2022/06/25 11:29:52;;;;;;;1.63;1.05;;;24.00;99.90;;;;;;5007819;28;20105;-78
2022/06/25 11:32:28;;;;;;;0.80;0.70;;;24.10;99.90;;;;;;5001610;28;20116;-77
2022/06/25 11:35:01;;;;;;;1.73;0.80;;;24.10;99.90;;;;;;5005423;28;20049;-79
2022/06/25 11:37:30;;;;;;;1.17;0.90;;;24.10;99.90;;;;;;5001402;28;20084;-78
2022/06/25 11:39:58;;;;;;;2.60;1.02;;;24.10;99.90;;;;;;5003105;28;20046;-77
2022/06/25 11:42:26;;;;;;;0.90;0.80;;;24.10;99.90;;;;;;5001760;28;20058;-79
2022/06/25 11:44:55;;;;;;;1.00;0.90;;;24.20;99.90;;;;;;4992120;28;20050;-79
2022/06/25 11:47:29;;;;;;;0.70;0.70;;;24.30;99.90;;;;;;5006094;28;20046;-79
2022/06/25 11:49:57;;;;;;;3.20;0.80;;;24.40;99.90;;;;;;5003308;28;20050;-78
2022/06/25 11:52:25;;;;;;;1.25;0.70;;;24.40;99.90;;;;;;5002470;28;20097;-78
2022/06/25 11:54:52;;;;;;;1.00;0.60;;;24.40;99.90;;;;;;5000502;28;20492;-79
2022/06/25 11:57:22;;;;;;;3.70;1.10;;;24.60;99.90;;;;;;5005444;28;20129;-78
2022/06/25 11:59:50;;;;;;;0.80;0.70;;;24.50;99.90;;;;;;5000586;28;20103;-78
2022/06/25 12:02:17;;;;;;;3.17;0.85;;;24.50;99.90;;;;;;5004743;28;20064;-77
2022/06/25 12:04:53;;;;;;;1.48;0.90;;;24.60;99.90;;;;;;5002436;28;20303;-76
2022/06/25 12:07:25;;;;;;;2.97;0.93;;;24.50;99.90;;;;;;5002241;28;20397;-78
2022/06/25 12:09:56;;;;;;;2.88;1.00;;;24.50;99.90;;;;;;5004562;28;20069;-77
2022/06/25 12:12:24;;;;;;;3.80;1.20;;;24.60;99.90;;;;;;5001274;28;20046;-77
2022/06/25 12:14:51;;;;;;;1.20;0.73;;;24.70;99.90;;;;;;5008219;28;20042;-78
2022/06/25 12:17:18;;;;;;;3.20;0.93;;;24.70;99.90;;;;;;4999296;28;20050;-78
2022/06/25 12:19:51;;;;;;;3.35;0.60;;;24.70;99.90;;;;;;5001683;28;20388;-77
2022/06/25 12:22:24;;;;;;;1.85;0.85;;;24.70;99.90;;;;;;5000847;28;20056;-78
2022/06/25 12:24:52;;;;;;;1.52;0.80;;;24.70;99.90;;;;;;4996640;28;20050;-77
2022/06/25 12:27:19;;;;;;;4.63;1.00;;;24.80;99.90;;;;;;5007344;28;20045;-77
2022/06/25 12:29:48;;;;;;;1.17;1.00;;;24.80;99.90;;;;;;5004996;28;20045;-78
2022/06/25 12:32:16;;;;;;;1.38;0.90;;;24.80;99.90;;;;;;5005964;28;20133;-77
2022/06/25 12:34:47;;;;;;;1.65;0.93;;;24.90;99.90;;;;;;5028424;23;20044;-78
2022/06/25 12:37:31;;;;;;;2.55;0.90;;;25.00;99.90;;;;;;4992257;28;20587;-78
2022/06/25 12:39:59;;;;;;;3.50;0.70;;;25.10;99.90;;;;;;4992386;28;20348;-78
2022/06/25 12:42:33;;;;;;;1.33;0.70;;;25.20;99.90;;;;;;4992090;28;20057;-78
2022/06/25 12:44:59;;;;;;;1.73;1.00;;;25.20;99.90;;;;;;5004486;28;20061;-78
2022/06/25 12:47:39;;;;;;;1.13;0.80;;;25.40;99.90;;;;;;5003108;28;20053;-78
2022/06/25 12:50:06;;;;;;;3.35;1.20;;;25.40;99.90;;;;;;5007471;28;20066;-77
2022/06/25 12:52:38;;;;;;;1.00;0.88;;;25.50;99.90;;;;;;5010849;28;20053;-78
2022/06/25 12:55:07;;;;;;;1.20;0.98;;;25.50;99.90;;;;;;5003960;28;20057;-75
2022/06/25 12:57:36;;;;;;;1.23;0.70;;;25.60;99.90;;;;;;5004579;28;20046;-78
2022/06/25 13:00:15;;;;;;;0.73;0.63;;;25.70;99.90;;;;;;5005195;28;20118;-77
2022/06/25 13:02:42;;;;;;;1.05;0.70;;;25.70;99.90;;;;;;4995617;28;20562;-78
2022/06/25 13:05:18;;;;;;;0.77;0.63;;;25.80;99.90;;;;;;4995512;28;20096;-78
2022/06/25 13:07:46;;;;;;;4.20;1.00;;;25.80;99.90;;;;;;4996433;28;20057;-78
2022/06/25 13:10:14;;;;;;;0.77;0.75;;;25.80;99.90;;;;;;5014040;28;20071;-78
2022/06/25 13:12:42;;;;;;;2.65;1.42;;;25.80;99.90;;;;;;5005534;28;20054;-77
2022/06/25 13:15:10;;;;;;;3.25;0.75;;;25.90;99.90;;;;;;5007398;28;20046;-78